Time;durP1;ratioP1;P1;durP2;ratioP2;P2;SDS_P1;SDS_P2;PMS_P1;PMS_P2;Temp;Humidity;BMP_temperature;BMP_pressure;BME280_temperature;BME280_humidity;BME280_pressure;Samples;Min_cycle;Max_cycle;Signal;HPM_P1;HPM_P2
2021/09/16 00:01:21;;;;;;;1.27;0.90;;;;;;;29.21;40.77;96460.28;4978890;28;21468;-30
2021/09/16 00:03:46;;;;;;;1.58;1.10;;;;;;;29.20;41.05;96459.47;4982500;28;20033;-29
2021/09/16 00:06:12;;;;;;;0.90;0.90;;;;;;;29.20;40.93;96453.31;4976403;28;20022;-29
2021/09/16 00:08:37;;;;;;;0.75;0.70;;;;;;;29.22;41.15;96462.00;4980854;28;20041;-29
2021/09/16 00:11:03;;;;;;;3.10;1.15;;;;;;;29.23;41.07;96460.19;4978431;28;20117;-29
2021/09/16 00:13:29;;;;;;;1.00;0.90;;;;;;;29.21;40.77;96469.06;4976076;28;20123;-29
2021/09/16 00:15:54;;;;;;;1.25;1.00;;;;;;;29.21;40.88;96471.69;4973635;28;20046;-32
2021/09/16 00:18:20;;;;;;;3.53;0.95;;;;;;;29.21;41.03;96473.47;4979194;28;20101;-29
2021/09/16 00:20:46;;;;;;;3.03;1.00;;;;;;;29.21;40.86;96465.56;4977414;28;20030;-30
2021/09/16 00:23:11;;;;;;;4.13;1.15;;;;;;;29.20;40.85;96467.38;4975469;28;20041;-29
2021/09/16 00:25:37;;;;;;;0.95;0.70;;;;;;;29.21;41.04;96463.78;4979988;28;20030;-29
2021/09/16 00:28:02;;;;;;;1.42;0.90;;;;;;;29.21;41.07;96462.91;4976273;28;20026;-28
2021/09/16 00:30:28;;;;;;;1.33;0.70;;;;;;;29.20;41.00;96456.81;4978660;28;20038;-29
2021/09/16 00:32:53;;;;;;;1.00;0.85;;;;;;;29.21;40.76;96463.78;4980858;28;20036;-29
2021/09/16 00:35:19;;;;;;;1.60;0.88;;;;;;;29.21;40.83;96462.91;4982434;28;20029;-30
2021/09/16 00:37:44;;;;;;;1.38;0.82;;;;;;;29.20;40.98;96459.47;4979598;28;20135;-29
2021/09/16 00:40:10;;;;;;;1.00;0.85;;;;;;;29.19;41.03;96465.69;4982548;28;20041;-29
2021/09/16 00:42:35;;;;;;;1.35;1.00;;;;;;;29.20;40.73;96470.00;4970095;28;20030;-30
2021/09/16 00:45:01;;;;;;;1.02;0.93;;;;;;;29.21;40.86;96471.69;4982794;28;20116;-30
2021/09/16 00:47:26;;;;;;;1.00;0.90;;;;;;;29.21;40.91;96473.47;4975600;28;20018;-30
2021/09/16 00:49:52;;;;;;;1.55;1.00;;;;;;;29.20;40.81;96467.38;4976055;28;20038;-35
2021/09/16 00:52:17;;;;;;;2.35;1.02;;;;;;;29.19;40.84;96463.06;4982087;28;20699;-29
2021/09/16 00:54:45;;;;;;;1.17;0.90;;;;;;;29.19;40.76;96460.41;4976463;28;20030;-29
2021/09/16 00:57:12;;;;;;;0.95;0.90;;;;;;;29.20;40.84;96464.75;4981578;28;20021;-29
2021/09/16 00:59:37;;;;;;;1.38;0.70;;;;;;;29.20;40.94;96462.09;4976455;28;20168;-30
2021/09/16 01:02:03;;;;;;;0.75;0.68;;;;;;;29.19;40.96;96470.97;4967621;28;20030;-30
2021/09/16 01:04:29;;;;;;;1.70;0.90;;;;;;;29.19;41.02;96473.63;4984141;28;20121;-29
2021/09/16 01:06:55;;;;;;;1.02;0.68;;;;;;;29.20;40.80;96470.00;4980737;28;20088;-29
2021/09/16 01:09:20;;;;;;;1.05;0.70;;;;;;;29.17;40.84;96467.59;4983678;28;20030;-29
2021/09/16 01:11:46;;;;;;;1.20;0.73;;;;;;;29.20;40.82;96475.28;4981211;28;20030;-29
2021/09/16 01:14:11;;;;;;;1.65;0.82;;;;;;;29.20;40.92;96475.28;4983320;28;20038;-30
2021/09/16 01:16:37;;;;;;;0.80;0.60;;;;;;;29.20;40.84;96471.81;4959640;28;20038;-30
2021/09/16 01:19:05;;;;;;;1.70;0.85;;;;;;;29.20;41.07;96477.06;4981936;28;20616;-28
2021/09/16 01:21:31;;;;;;;1.63;0.80;;;;;;;29.20;41.00;96467.38;4979722;28;20652;-29
2021/09/16 01:23:56;;;;;;;1.02;0.90;;;;;;;29.19;40.82;96476.25;4974608;28;20033;-30
2021/09/16 01:26:21;;;;;;;1.55;0.68;;;;;;;29.20;40.77;96477.94;4978481;28;20057;-29
2021/09/16 01:28:47;;;;;;;0.60;0.60;;;;;;;29.20;40.74;96466.53;4981060;28;20488;-29
2021/09/16 01:31:15;;;;;;;0.82;0.73;;;;;;;29.19;40.77;96478.91;4978499;28;20042;-29
2021/09/16 01:33:41;;;;;;;1.02;0.80;;;;;;;29.20;41.00;96477.06;4975246;28;20552;-34
2021/09/16 01:36:10;;;;;;;2.17;0.90;;;;;;;29.21;40.80;96481.41;4983631;28;20033;-27
2021/09/16 01:38:35;;;;;;;0.77;0.70;;;;;;;29.20;40.71;96475.28;4973021;28;20043;-29
2021/09/16 01:41:01;;;;;;;0.80;0.80;;;;;;;29.20;40.83;96464.75;4981257;28;20197;-31
2021/09/16 01:43:26;;;;;;;1.75;0.70;;;;;;;29.19;40.42;96460.41;4977512;28;20501;-29
2021/09/16 01:45:52;;;;;;;1.60;0.90;;;;;;;29.19;40.70;96468.34;4982536;28;20030;-32
2021/09/16 01:48:17;;;;;;;1.55;0.70;;;;;;;29.20;40.94;96466.53;4977437;28;20033;-29
2021/09/16 01:50:42;;;;;;;2.35;0.82;;;;;;;29.19;40.66;96460.41;4984060;28;20556;-29
2021/09/16 01:53:08;;;;;;;0.68;0.60;;;;;;;29.20;40.98;96461.25;4981329;28;20026;-30
2021/09/16 01:55:33;;;;;;;1.35;0.70;;;;;;;29.20;40.97;96451.53;4975766;28;20544;-30
2021/09/16 01:57:59;;;;;;;0.98;0.70;;;;;;;29.19;40.81;96455.16;4975154;28;20029;-32
2021/09/16 02:00:24;;;;;;;1.05;0.70;;;;;;;29.19;41.06;96456.94;4976280;28;20045;-29
2021/09/16 02:02:49;;;;;;;1.05;0.80;;;;;;;29.19;40.88;96460.41;4977551;28;20022;-29
2021/09/16 02:05:15;;;;;;;1.58;1.05;;;;;;;29.19;40.75;96455.16;4975475;28;20030;-27
2021/09/16 02:07:40;;;;;;;0.80;0.60;;;;;;;29.19;40.82;96455.16;4976683;28;20572;-29
2021/09/16 02:10:06;;;;;;;0.90;0.60;;;;;;;29.20;40.86;96456.81;4976816;28;20088;-29
2021/09/16 02:12:31;;;;;;;1.00;0.60;;;;;;;29.20;41.02;96450.69;4976284;28;20325;-30
2021/09/16 02:14:57;;;;;;;0.95;0.63;;;;;;;29.19;40.96;96457.78;4974703;28;20038;-30
2021/09/16 02:17:22;;;;;;;1.00;0.63;;;;;;;29.19;41.10;96452.50;4975830;28;20030;-29
2021/09/16 02:19:48;;;;;;;1.13;0.75;;;;;;;29.20;41.02;96441.00;4984808;28;20025;-30
2021/09/16 02:22:13;;;;;;;0.98;0.75;;;;;;;29.20;40.86;96445.41;4984485;28;20377;-29
2021/09/16 02:24:38;;;;;;;0.85;0.63;;;;;;;29.19;40.88;96441.94;4988057;28;20026;-29
2021/09/16 02:27:04;;;;;;;1.58;0.90;;;;;;;29.20;40.76;96443.63;4979731;28;20030;-28
2021/09/16 02:29:30;;;;;;;0.95;0.65;;;;;;;29.20;41.00;96437.50;4982901;28;20040;-32
2021/09/16 02:31:55;;;;;;;1.40;0.70;;;;;;;29.19;41.08;96436.69;4987240;28;20045;-29
2021/09/16 02:34:21;;;;;;;0.70;0.70;;;;;;;29.19;40.66;96434.03;4987352;28;20476;-29
2021/09/16 02:36:46;;;;;;;0.70;0.70;;;;;;;29.19;40.77;96434.03;4983788;28;20104;-29
2021/09/16 02:39:11;;;;;;;1.63;0.80;;;;;;;29.19;40.92;96434.03;4977810;28;20375;-29
2021/09/16 02:41:37;;;;;;;1.58;0.52;;;;;;;29.17;40.68;96435.94;4984407;28;20037;-30
2021/09/16 02:44:02;;;;;;;0.98;0.60;;;;;;;29.18;40.90;96440.25;4972633;28;20030;-30
2021/09/16 02:46:28;;;;;;;0.90;0.60;;;;;;;29.18;40.72;96427.06;4973154;28;20576;-30
2021/09/16 02:48:53;;;;;;;0.68;0.60;;;;;;;29.20;40.65;96430.44;4981722;28;20057;-30
2021/09/16 02:51:18;;;;;;;0.93;0.80;;;;;;;29.18;40.82;96432.31;4972391;28;20035;-30
2021/09/16 02:53:44;;;;;;;0.60;0.60;;;;;;;29.18;40.96;96432.31;4979801;28;20026;-30
2021/09/16 02:56:09;;;;;;;1.15;0.70;;;;;;;29.18;40.69;96434.97;4983159;28;20031;-28
2021/09/16 02:58:35;;;;;;;2.90;0.80;;;;;;;29.18;40.68;96432.31;4982990;28;20404;-29
2021/09/16 03:01:00;;;;;;;1.95;0.93;;;;;;;29.19;40.75;96439.31;4980094;28;20033;-28
2021/09/16 03:03:25;;;;;;;1.52;0.90;;;;;;;29.18;40.80;96437.59;4986237;28;20033;-29
2021/09/16 03:05:51;;;;;;;0.63;0.50;;;;;;;29.17;40.73;96435.94;4981438;28;20038;-30
2021/09/16 03:08:16;;;;;;;0.77;0.60;;;;;;;29.19;40.80;96433.19;4983461;28;20113;-32
2021/09/16 03:10:42;;;;;;;0.95;0.70;;;;;;;29.18;40.86;96434.16;4984084;28;20354;-30
2021/09/16 03:13:07;;;;;;;0.80;0.60;;;;;;;29.18;41.05;96427.06;4977057;28;20536;-28
2021/09/16 03:15:33;;;;;;;1.67;0.63;;;;;;;29.19;40.83;96430.53;4979895;28;20467;-29
2021/09/16 03:17:58;;;;;;;0.65;0.50;;;;;;;29.19;40.85;96434.03;4978782;28;20030;-30
2021/09/16 03:20:24;;;;;;;1.60;0.73;;;;;;;29.18;41.18;96429.69;4982039;28;20153;-29
2021/09/16 03:22:49;;;;;;;0.68;0.50;;;;;;;29.19;40.82;96426.13;4982961;28;20038;-30
2021/09/16 03:25:15;;;;;;;1.80;0.47;;;;;;;29.19;40.60;96418.19;4982553;28;20030;-29
2021/09/16 03:27:40;;;;;;;1.42;0.60;;;;;;;29.18;40.65;96421.78;4982890;28;20099;-30
2021/09/16 03:30:07;;;;;;;3.00;0.88;;;;;;;29.19;40.85;96428.75;4960917;28;20026;-30
2021/09/16 03:32:32;;;;;;;0.60;0.52;;;;;;;29.18;40.89;96418.31;4984223;28;20159;-30
2021/09/16 03:34:57;;;;;;;1.10;0.70;;;;;;;29.18;40.79;96416.50;4982610;28;20038;-30
2021/09/16 03:37:23;;;;;;;1.95;0.63;;;;;;;29.18;40.76;96421.78;4981702;28;20092;-29
2021/09/16 03:39:48;;;;;;;0.40;0.40;;;;;;;29.18;40.72;96423.59;4978716;28;20444;-28
2021/09/16 03:42:14;;;;;;;0.70;0.65;;;;;;;29.18;40.79;96421.78;4986749;28;20032;-35
2021/09/16 03:44:39;;;;;;;1.02;0.52;;;;;;;29.17;40.73;96420.09;4976251;28;20092;-31
2021/09/16 03:47:05;;;;;;;1.33;0.57;;;;;;;29.17;40.90;96420.09;4975377;28;20485;-28
2021/09/16 03:49:30;;;;;;;1.10;0.57;;;;;;;29.18;40.79;96415.66;4985043;28;20027;-28
2021/09/16 03:51:55;;;;;;;0.88;0.68;;;;;;;29.17;40.91;96424.53;4982683;28;20068;-28
2021/09/16 03:54:21;;;;;;;0.50;0.50;;;;;;;29.18;40.68;96426.22;4981220;28;20026;-33
2021/09/16 03:56:46;;;;;;;0.70;0.70;;;;;;;29.18;40.67;96426.22;4975254;28;20113;-30
2021/09/16 03:59:12;;;;;;;0.30;0.30;;;;;;;29.17;40.64;96428.00;4983485;28;20416;-30
2021/09/16 04:01:37;;;;;;;1.15;0.68;;;;;;;29.17;40.89;96420.09;4980606;28;20037;-29
2021/09/16 04:04:03;;;;;;;0.52;0.50;;;;;;;29.18;40.64;96427.06;4980747;28;20032;-29
2021/09/16 04:06:28;;;;;;;0.25;0.25;;;;;;;29.17;40.75;96425.38;4983362;28;20072;-29
2021/09/16 04:08:53;;;;;;;0.50;0.50;;;;;;;29.18;40.69;96426.22;4980135;28;20045;-31
2021/09/16 04:11:19;;;;;;;0.70;0.50;;;;;;;29.17;40.80;96425.38;4981977;28;20026;-28
2021/09/16 04:13:44;;;;;;;0.98;0.50;;;;;;;29.18;40.86;96427.06;4980448;28;20038;-30
2021/09/16 04:16:10;;;;;;;0.40;0.40;;;;;;;29.17;40.92;96429.78;4979492;28;20030;-32
2021/09/16 04:18:35;;;;;;;0.75;0.63;;;;;;;29.16;40.32;96423.69;4975838;28;20030;-28
2021/09/16 04:21:00;;;;;;;0.95;0.57;;;;;;;29.17;40.69;96435.94;4979530;28;20038;-28
2021/09/16 04:23:26;;;;;;;1.00;0.50;;;;;;;29.13;40.90;96420.44;4983595;28;20038;-30
2021/09/16 04:25:51;;;;;;;1.75;0.60;;;;;;;29.18;40.78;96431.50;4975256;28;20034;-30
2021/09/16 04:28:17;;;;;;;1.02;0.50;;;;;;;29.17;40.88;96433.28;4979072;28;20027;-30
2021/09/16 04:30:42;;;;;;;0.57;0.40;;;;;;;29.16;40.96;96428.13;4978930;28;20041;-30
2021/09/16 04:33:07;;;;;;;1.10;0.68;;;;;;;29.16;40.73;96434.25;4981153;28;20038;-29
2021/09/16 04:35:33;;;;;;;1.30;0.60;;;;;;;29.16;40.65;96428.13;4978942;28;20030;-32
2021/09/16 04:37:58;;;;;;;0.90;0.50;;;;;;;29.15;40.69;96437.84;4980184;28;20555;-30
2021/09/16 04:40:24;;;;;;;0.57;0.50;;;;;;;29.16;40.62;96433.41;4981754;28;20512;-29
2021/09/16 04:42:49;;;;;;;2.05;0.50;;;;;;;29.16;40.62;96433.41;4985744;28;20116;-29
2021/09/16 04:45:14;;;;;;;0.50;0.50;;;;;;;29.16;40.87;96428.97;4978428;28;20034;-30
2021/09/16 04:47:40;;;;;;;0.90;0.50;;;;;;;29.15;40.86;96431.72;4977166;28;20092;-30
2021/09/16 04:50:09;;;;;;;0.88;0.70;;;;;;;29.16;40.76;96428.13;4982011;28;20045;-29
2021/09/16 04:52:35;;;;;;;0.73;0.60;;;;;;;29.15;40.70;96432.56;4979330;28;20045;-27
2021/09/16 04:55:00;;;;;;;2.63;0.70;;;;;;;29.15;40.59;96440.50;4972013;28;20038;-30
2021/09/16 04:57:26;;;;;;;1.00;0.50;;;;;;;29.16;40.86;96439.53;4977527;28;20042;-31
2021/09/16 04:59:53;;;;;;;0.82;0.60;;;;;;;29.15;40.67;96437.00;4974483;28;20096;-29
2021/09/16 05:02:19;;;;;;;0.80;0.50;;;;;;;29.15;40.76;96432.56;4975283;28;20034;-29
2021/09/16 05:04:44;;;;;;;0.98;0.43;;;;;;;29.15;40.82;96444.91;4984982;28;20398;-29
2021/09/16 05:07:09;;;;;;;0.57;0.50;;;;;;;29.14;40.82;96430.88;4984374;28;20030;-31
2021/09/16 05:09:35;;;;;;;0.52;0.40;;;;;;;29.15;40.54;96437.84;4983285;28;20040;-28
2021/09/16 05:12:00;;;;;;;2.08;0.60;;;;;;;29.14;40.83;96436.13;4974786;28;20034;-28
2021/09/16 05:14:25;;;;;;;0.68;0.40;;;;;;;29.14;40.73;96436.13;4973683;28;20046;-30
2021/09/16 05:16:51;;;;;;;1.13;0.82;;;;;;;29.14;40.82;96441.41;4982050;28;20100;-29
2021/09/16 05:19:16;;;;;;;2.05;0.70;;;;;;;29.17;41.07;96440.34;4976697;28;20026;-31
2021/09/16 05:21:42;;;;;;;0.60;0.60;;;;;;;29.14;41.02;96441.41;4977893;28;20042;-31
2021/09/16 05:24:07;;;;;;;1.75;0.80;;;;;;;29.15;41.01;96437.84;4980320;28;20451;-29
2021/09/16 05:26:33;;;;;;;3.38;0.60;;;;;;;29.15;40.82;96437.84;4973910;28;20278;-29
2021/09/16 05:28:58;;;;;;;0.88;0.60;;;;;;;29.16;40.80;96438.66;4974333;28;20644;-29
2021/09/16 05:31:23;;;;;;;0.75;0.57;;;;;;;29.16;41.08;96438.66;4980800;28;20454;-30
2021/09/16 05:33:49;;;;;;;1.45;0.65;;;;;;;29.15;41.07;96443.13;4979176;28;20626;-29
2021/09/16 05:36:14;;;;;;;1.27;0.65;;;;;;;29.16;41.29;96443.94;4982030;28;20030;-28
2021/09/16 05:38:40;;;;;;;1.08;0.40;;;;;;;29.15;40.80;96443.13;4979597;28;20034;-29
2021/09/16 05:41:05;;;;;;;0.60;0.50;;;;;;;29.15;40.75;96444.91;4979029;28;20599;-30
2021/09/16 05:43:31;;;;;;;0.77;0.50;;;;;;;29.15;40.91;96447.56;4982505;28;20030;-29
2021/09/16 05:45:56;;;;;;;1.00;0.60;;;;;;;29.15;41.02;96451.03;4975175;28;20080;-30
2021/09/16 05:48:23;;;;;;;0.93;0.43;;;;;;;29.15;40.68;96447.56;4982366;28;20035;-29
2021/09/16 05:50:49;;;;;;;1.35;0.68;;;;;;;29.15;40.82;96450.19;4979004;28;20114;-29
2021/09/16 05:53:14;;;;;;;0.98;0.70;;;;;;;29.16;40.77;96441.31;4977521;28;20023;-30
2021/09/16 05:55:40;;;;;;;2.30;0.73;;;;;;;29.15;40.97;96443.13;4976480;28;21530;-30
2021/09/16 05:58:06;;;;;;;0.60;0.55;;;;;;;29.15;40.97;96447.56;4976275;28;20037;-29
2021/09/16 06:00:31;;;;;;;0.60;0.60;;;;;;;29.15;40.72;96442.28;4974885;28;20133;-30
2021/09/16 06:02:57;;;;;;;1.50;0.50;;;;;;;29.14;40.87;96449.34;4980293;28;20533;-27
2021/09/16 06:05:22;;;;;;;0.98;0.55;;;;;;;29.14;41.13;96451.97;4976453;28;20037;-28
2021/09/16 06:07:48;;;;;;;1.10;0.70;;;;;;;29.14;41.10;96457.25;4976273;28;20117;-30
2021/09/16 06:10:13;;;;;;;1.13;0.50;;;;;;;29.14;41.00;96457.25;4979527;28;20026;-28
2021/09/16 06:12:39;;;;;;;0.85;0.60;;;;;;;29.14;40.97;96459.88;4978561;28;20058;-31
2021/09/16 06:15:05;;;;;;;1.95;0.73;;;;;;;29.11;41.14;96451.34;4975830;28;20034;-29
2021/09/16 06:17:30;;;;;;;1.25;0.80;;;;;;;29.13;40.93;96455.56;4976609;28;20903;-27
2021/09/16 06:19:55;;;;;;;0.75;0.60;;;;;;;29.14;41.11;96461.69;4978924;28;20152;-30
2021/09/16 06:22:21;;;;;;;0.90;0.60;;;;;;;29.14;40.94;96462.53;4981620;28;20022;-29
2021/09/16 06:24:46;;;;;;;0.77;0.40;;;;;;;29.14;41.12;96462.53;4975984;28;20041;-31
2021/09/16 06:27:12;;;;;;;0.63;0.55;;;;;;;29.14;40.83;96462.53;4977096;28;20038;-29
2021/09/16 06:29:37;;;;;;;1.27;0.50;;;;;;;29.14;41.04;96469.63;4970929;28;20030;-30
2021/09/16 06:32:04;;;;;;;1.60;0.50;;;;;;;29.14;41.09;96477.53;4977123;28;20026;-28
2021/09/16 06:34:29;;;;;;;1.55;0.50;;;;;;;29.14;40.93;96473.06;4974805;28;20034;-28
2021/09/16 06:36:55;;;;;;;1.65;0.85;;;;;;;29.15;41.02;96468.66;4979908;28;20177;-29
2021/09/16 06:39:20;;;;;;;1.00;0.70;;;;;;;29.14;41.01;96470.44;4975519;28;20231;-28
2021/09/16 06:41:45;;;;;;;3.97;0.80;;;;;;;29.14;40.88;96461.69;4972574;28;20562;-30
2021/09/16 06:44:11;;;;;;;2.00;1.05;;;;;;;29.15;41.10;96474.78;4976126;28;20128;-29
2021/09/16 06:46:36;;;;;;;7.45;1.90;;;;;;;29.14;41.12;96466.97;4967954;28;20033;-29
2021/09/16 06:49:02;;;;;;;5.60;2.25;;;;;;;29.13;41.07;96462.66;4966539;28;20041;-29
2021/09/16 06:51:27;;;;;;;3.60;1.80;;;;;;;29.13;41.04;96467.94;4970830;28;20420;-29
2021/09/16 06:53:53;;;;;;;10.10;2.40;;;;;;;29.13;40.88;96475.84;4974735;28;20030;-30
2021/09/16 06:56:19;;;;;;;11.63;2.60;;;;;;;29.13;41.14;96475.84;4972367;28;20575;-28
2021/09/16 06:58:44;;;;;;;9.68;2.60;;;;;;;29.12;41.21;96475.00;4977844;28;20042;-28
2021/09/16 07:01:10;;;;;;;9.40;2.17;;;;;;;29.12;41.07;96475.00;4973057;28;20029;-31
2021/09/16 07:03:35;;;;;;;7.60;2.15;;;;;;;29.12;41.12;96480.28;4976579;28;20030;-29
2021/09/16 07:06:00;;;;;;;5.20;2.08;;;;;;;29.12;40.99;96476.78;4971939;28;20046;-29
2021/09/16 07:08:26;;;;;;;6.38;2.28;;;;;;;29.11;41.17;96486.50;4974311;28;20759;-29
2021/09/16 07:10:51;;;;;;;4.43;2.05;;;;;;;29.09;40.88;96477.84;4975329;28;20042;-29
2021/09/16 07:13:17;;;;;;;4.15;1.90;;;;;;;29.09;40.81;96480.50;4977005;28;20699;-29
2021/09/16 07:15:42;;;;;;;4.75;2.00;;;;;;;29.08;40.78;96484.09;4980716;28;20027;-28
2021/09/16 07:18:08;;;;;;;3.78;1.88;;;;;;;29.06;40.93;96492.09;4977775;28;20034;-28
2021/09/16 07:20:33;;;;;;;5.45;1.83;;;;;;;29.04;40.77;96487.91;4976887;28;20456;-29
2021/09/16 07:22:58;;;;;;;5.85;1.98;;;;;;;29.01;40.62;96498.66;4981881;28;20432;-28
2021/09/16 07:25:24;;;;;;;8.40;2.47;;;;;;;29.00;40.93;96499.63;4981942;28;20123;-27
2021/09/16 07:27:49;;;;;;;3.63;1.90;;;;;;;28.98;40.79;96509.44;4980606;28;20029;-30
2021/09/16 07:30:15;;;;;;;5.68;2.00;;;;;;;28.96;40.76;96506.91;4979364;28;20106;-28
2021/09/16 07:32:40;;;;;;;3.50;2.00;;;;;;;28.94;41.07;96509.66;4977334;28;20034;-26
2021/09/16 07:35:06;;;;;;;12.82;2.15;;;;;;;28.92;40.92;96514.19;4974628;28;20026;-28
2021/09/16 07:37:31;;;;;;;5.47;1.80;;;;;;;28.91;40.96;96519.59;4973590;28;20393;-29
2021/09/16 07:39:57;;;;;;;4.43;1.83;;;;;;;28.89;41.01;96517.06;4978816;28;20640;-27
2021/09/16 07:42:23;;;;;;;7.60;2.20;;;;;;;28.87;40.84;96524.19;4980795;28;20031;-29
2021/09/16 07:44:48;;;;;;;5.20;2.00;;;;;;;28.87;40.96;96526.81;4976636;28;20113;-28
2021/09/16 07:47:14;;;;;;;4.18;2.00;;;;;;;28.85;41.14;96530.53;4977318;28;20036;-29
2021/09/16 07:49:39;;;;;;;4.65;2.30;;;;;;;28.84;40.99;96529.69;4979167;28;20483;-28
2021/09/16 07:52:05;;;;;;;4.32;2.17;;;;;;;28.84;40.85;96534.97;4977170;28;20036;-27
2021/09/16 07:54:30;;;;;;;4.82;2.40;;;;;;;28.82;41.05;96537.72;4979509;28;20316;-29
2021/09/16 07:56:55;;;;;;;4.55;2.33;;;;;;;28.80;41.04;96550.16;4978124;28;20039;-27
2021/09/16 07:59:21;;;;;;;3.40;2.03;;;;;;;28.80;40.64;96559.88;4980032;28;20022;-29
2021/09/16 08:01:46;;;;;;;5.50;2.20;;;;;;;28.79;40.88;96558.16;4976021;28;20026;-28
2021/09/16 08:04:12;;;;;;;2.97;1.80;;;;;;;28.78;40.91;96556.47;4976626;28;20093;-29
2021/09/16 08:06:37;;;;;;;2.17;1.50;;;;;;;28.77;40.98;96562.72;4976872;28;20034;-30
2021/09/16 08:09:02;;;;;;;5.13;1.90;;;;;;;28.76;41.11;96559.22;4977625;28;20108;-28
2021/09/16 08:11:29;;;;;;;4.03;1.67;;;;;;;28.75;40.81;96560.16;4973083;28;20030;-29
2021/09/16 08:13:54;;;;;;;22.85;1.50;;;;;;;28.74;40.78;96561.13;4977900;28;20062;-32
2021/09/16 08:16:20;;;;;;;4.50;1.60;;;;;;;28.73;40.75;96563.88;4976565;28;20034;-29
2021/09/16 08:18:46;;;;;;;6.78;1.40;;;;;;;28.74;40.72;96565.53;4975561;28;20374;-30
2021/09/16 08:21:13;;;;;;;4.32;1.23;;;;;;;28.72;40.67;96563.00;4977940;28;20054;-30
2021/09/16 08:23:38;;;;;;;3.15;1.10;;;;;;;28.71;40.81;96565.78;4975956;28;20066;-29
2021/09/16 08:26:04;;;;;;;5.95;1.35;;;;;;;28.71;40.74;96576.31;4975599;28;20035;-29
2021/09/16 08:28:29;;;;;;;4.32;1.08;;;;;;;28.68;40.80;96580.84;4977494;28;20568;-29
2021/09/16 08:30:55;;;;;;;4.55;1.10;;;;;;;28.68;40.71;96577.38;4981644;28;20033;-28
2021/09/16 08:33:20;;;;;;;6.47;1.30;;;;;;;28.68;40.76;96587.94;4977258;28;20030;-29
2021/09/16 08:35:45;;;;;;;4.57;1.25;;;;;;;28.66;40.96;96588.03;4977317;28;20030;-29
2021/09/16 08:38:11;;;;;;;4.20;1.10;;;;;;;28.64;40.90;96592.56;4975903;28;20031;-29
2021/09/16 08:40:36;;;;;;;1.98;1.15;;;;;;;28.63;40.82;96596.13;4980777;28;20021;-28
2021/09/16 08:43:02;;;;;;;2.70;1.08;;;;;;;28.63;40.62;96601.41;4978588;28;20038;-28
2021/09/16 08:45:27;;;;;;;4.35;1.00;;;;;;;28.63;40.79;96605.81;4977598;28;20517;-30
2021/09/16 08:47:53;;;;;;;9.90;1.23;;;;;;;28.62;40.63;96605.00;4977718;28;20132;-29
2021/09/16 08:50:20;;;;;;;2.40;0.90;;;;;;;28.61;40.87;96603.31;4975314;28;20089;-29
2021/09/16 08:52:46;;;;;;;4.13;1.10;;;;;;;28.60;40.86;96600.78;4975759;28;20497;-29
2021/09/16 08:55:13;;;;;;;3.70;1.02;;;;;;;28.60;41.07;96598.97;4955856;28;20026;-29
2021/09/16 08:57:40;;;;;;;5.03;1.13;;;;;;;28.62;41.07;96605.00;4975045;28;20023;-28
2021/09/16 09:00:13;;;;;;;2.55;1.08;;;;;;;28.64;41.08;96611.00;4979779;28;20404;-32
2021/09/16 09:02:38;;;;;;;5.15;1.15;;;;;;;28.66;41.11;96614.41;4978890;28;20036;-28
2021/09/16 09:05:04;;;;;;;6.90;1.45;;;;;;;28.68;41.00;96609.03;4972652;28;20026;-29
2021/09/16 09:07:55;;;;;;;4.60;0.90;;;;;;;28.71;40.92;96621.16;4982255;28;20360;-29
2021/09/16 09:10:32;;;;;;;4.47;1.15;;;;;;;28.73;40.93;96619.25;4997107;28;20041;-29
2021/09/16 09:12:58;;;;;;;6.28;1.27;;;;;;;28.74;40.91;96620.91;4989237;28;20045;-30
2021/09/16 09:15:23;;;;;;;6.15;1.38;;;;;;;28.76;41.00;96624.31;4982021;28;20030;-28
2021/09/16 09:18:05;;;;;;;3.60;1.85;;;;;;;28.75;40.40;96622.63;4979873;28;20719;-29
2021/09/16 09:20:31;;;;;;;7.43;2.30;;;;;;;28.71;39.53;96619.34;4986520;28;20104;-28
2021/09/16 09:22:56;;;;;;;4.88;2.83;;;;;;;28.62;39.17;96622.59;4965169;28;20563;-28
2021/09/16 09:25:24;;;;;;;6.53;3.05;;;;;;;28.53;38.75;96632.00;4983407;28;20103;-28
2021/09/16 09:27:51;;;;;;;4.55;3.08;;;;;;;28.41;38.54;96629.22;4980563;28;20407;-32
2021/09/16 09:30:27;;;;;;;3.45;3.15;;;;;;;28.30;38.42;96629.09;4980495;28;20018;-30
2021/09/16 09:32:57;;;;;;;3.50;2.50;;;;;;;28.19;38.88;96629.78;4981854;28;20121;-28
2021/09/16 09:35:22;;;;;;;4.22;2.47;;;;;;;28.12;38.98;96634.59;4980179;28;20424;-28
2021/09/16 09:37:48;;;;;;;3.63;1.88;;;;;;;28.10;39.17;96625.94;4983621;28;20080;-27
2021/09/16 09:40:13;;;;;;;5.07;2.30;;;;;;;28.10;39.20;96636.47;4981804;28;20045;-32
2021/09/16 09:42:39;;;;;;;6.20;2.55;;;;;;;28.11;39.51;96643.44;4983910;28;20510;-27
2021/09/16 09:45:08;;;;;;;7.15;2.53;;;;;;;28.13;39.42;96640.69;4984651;28;20037;-30
2021/09/16 09:47:37;;;;;;;4.40;2.40;;;;;;;28.15;39.47;96647.56;4986587;28;20420;-29
2021/09/16 09:50:04;;;;;;;3.75;1.90;;;;;;;28.18;39.66;96644.72;4984497;28;21326;-28
2021/09/16 09:52:29;;;;;;;3.90;2.25;;;;;;;28.21;39.63;96643.69;4983269;28;20811;-29
2021/09/16 09:54:55;;;;;;;4.32;2.33;;;;;;;28.24;39.63;96643.50;4984830;28;20112;-28
2021/09/16 09:57:20;;;;;;;3.22;2.10;;;;;;;28.27;39.49;96643.28;4981477;28;20488;-30
2021/09/16 10:00:05;;;;;;;4.57;2.30;;;;;;;28.30;39.39;96642.28;4986309;28;20065;-29
2021/09/16 10:02:32;;;;;;;5.32;2.35;;;;;;;28.32;39.56;96637.72;4984952;28;20034;-27
2021/09/16 10:04:58;;;;;;;4.35;2.30;;;;;;;28.36;39.22;96635.72;4985694;28;20030;-32
2021/09/16 10:07:31;;;;;;;4.57;2.30;;;;;;;28.39;39.60;96635.53;4994959;28;20140;-29
2021/09/16 10:09:57;;;;;;;3.20;2.15;;;;;;;28.40;39.40;96638.06;4979252;28;20038;-34
2021/09/16 10:12:23;;;;;;;4.13;1.90;;;;;;;28.42;39.49;96636.16;4984522;28;20108;-29
2021/09/16 10:14:48;;;;;;;3.30;2.20;;;;;;;28.45;39.49;96639.56;4983621;28;20402;-29
2021/09/16 10:17:14;;;;;;;3.70;2.13;;;;;;;28.47;39.72;96642.94;4986479;28;20025;-28
2021/09/16 10:19:41;;;;;;;3.80;2.33;;;;;;;28.47;39.62;96649.06;4987301;28;20037;-28
2021/09/16 10:22:10;;;;;;;5.00;2.10;;;;;;;28.50;39.75;96648.00;4982570;28;20050;-27
2021/09/16 10:24:35;;;;;;;3.03;1.92;;;;;;;28.52;39.83;96651.38;4980963;28;20121;-28
2021/09/16 10:27:01;;;;;;;3.38;1.90;;;;;;;28.54;39.68;96652.13;4978951;28;20031;-27
2021/09/16 10:29:29;;;;;;;3.05;2.20;;;;;;;28.55;39.47;96648.53;4981315;28;20053;-28
2021/09/16 10:32:06;;;;;;;2.72;2.22;;;;;;;28.56;39.71;96651.06;4985298;28;20098;-27
2021/09/16 10:34:43;;;;;;;2.58;2.10;;;;;;;28.58;39.77;96650.97;4981804;28;20036;-29
2021/09/16 10:37:18;;;;;;;3.35;2.03;;;;;;;28.59;39.62;96647.38;4977769;28;20060;-28
2021/09/16 10:39:44;;;;;;;2.97;2.13;;;;;;;28.60;39.60;96643.78;4981749;28;20049;-28
2021/09/16 10:42:10;;;;;;;6.80;2.00;;;;;;;28.61;39.61;96653.41;4983692;28;20512;-29
2021/09/16 10:44:36;;;;;;;1.98;1.75;;;;;;;28.62;39.72;96651.59;4979818;28;20026;-29
2021/09/16 10:47:18;;;;;;;2.72;1.92;;;;;;;28.62;39.77;96647.19;4978329;28;20578;-27
2021/09/16 10:49:44;;;;;;;6.63;2.65;;;;;;;28.64;39.77;96653.19;4976329;28;20093;-29
2021/09/16 10:52:10;;;;;;;4.72;2.60;;;;;;;28.65;39.69;96657.50;4976880;28;20129;-28
2021/09/16 10:54:41;;;;;;;3.25;2.20;;;;;;;28.65;39.73;96654.88;4978710;28;20034;-28
2021/09/16 10:57:09;;;;;;;4.70;2.35;;;;;;;28.68;39.77;96657.31;4975874;28;20031;-28
2021/09/16 10:59:50;;;;;;;4.35;2.05;;;;;;;28.68;39.74;96661.75;4978329;28;20179;-28
2021/09/16 11:02:30;;;;;;;5.20;2.03;;;;;;;28.69;39.66;96647.63;4979067;28;20022;-29
2021/09/16 11:04:56;;;;;;;2.60;2.00;;;;;;;28.69;39.68;96653.72;4977204;28;20076;-29
2021/09/16 11:07:39;;;;;;;5.25;2.17;;;;;;;28.69;39.55;96651.09;4979672;28;20180;-28
2021/09/16 11:10:17;;;;;;;2.72;2.03;;;;;;;28.73;39.88;96650.88;4977505;28;20033;-28
2021/09/16 11:12:43;;;;;;;2.85;1.98;;;;;;;28.73;39.62;96653.53;4978452;28;20025;-28
2021/09/16 11:15:10;;;;;;;4.50;2.40;;;;;;;28.75;39.85;96654.28;4978575;28;20117;-33
2021/09/16 11:17:36;;;;;;;5.32;2.80;;;;;;;28.74;39.67;96655.19;4979224;28;20030;-29
2021/09/16 11:20:02;;;;;;;5.68;3.20;;;;;;;28.75;39.97;96662.19;4980069;28;20045;-30
2021/09/16 11:22:27;;;;;;;15.02;3.40;;;;;;;28.77;39.82;96662.91;4984811;28;20551;-31
2021/09/16 11:24:54;;;;;;;5.18;3.28;;;;;;;28.78;39.94;96668.09;4987986;28;20038;-28
2021/09/16 11:27:30;;;;;;;10.25;2.90;;;;;;;28.78;39.82;96664.59;4983695;28;20105;-28
2021/09/16 11:29:57;;;;;;;5.43;3.40;;;;;;;28.79;39.71;96674.19;4988808;28;20707;-29